Time;durP1;ratioP1;P1;durP2;ratioP2;P2;SDS_P1;SDS_P2;PMS_P1;PMS_P2;Temp;Humidity;BMP_temperature;BMP_pressure;BME280_temperature;BME280_humidity;BME280_pressure;Samples;Min_cycle;Max_cycle;Signal;HPM_P1;HPM_P2
2023/04/26 00:01:13;;;;;;;1.30;1.13;;;;;;;;;;5044342;28;20522;-41
2023/04/26 00:03:39;;;;;;;1.77;1.35;;;;;;;;;;5040657;28;20108;-42
2023/04/26 00:06:08;;;;;;;1.30;1.20;;;;;;;;;;5040348;28;20902;-41
2023/04/26 00:08:37;;;;;;;6.45;1.30;;;;;;;;;;5041046;28;20036;-42
2023/04/26 00:11:02;;;;;;;5.07;1.27;;;;;;;;;;5040131;28;20056;-42
2023/04/26 00:13:27;;;;;;;4.22;1.25;;;;;;;;;;5045236;28;20029;-43
2023/04/26 00:15:53;;;;;;;1.15;1.08;;;;;;;;;;5042925;28;20041;-42
2023/04/26 00:18:18;;;;;;;1.85;1.30;;;;;;;;;;5044833;28;20043;-41
2023/04/26 00:20:43;;;;;;;3.83;1.52;;;;;;;;;;5043145;28;20044;-41
2023/04/26 00:23:09;;;;;;;3.15;1.58;;;;;;;;;;5043260;28;20028;-42
2023/04/26 00:25:35;;;;;;;3.10;1.63;;;;;;;;;;5039584;28;20033;-48
2023/04/26 00:28:01;;;;;;;5.43;1.85;;;;;;;;;;5041452;28;20128;-43
2023/04/26 00:30:26;;;;;;;2.33;1.40;;;;;;;;;;5045683;28;20025;-43
2023/04/26 00:32:52;;;;;;;2.17;1.23;;;;;;;;;;5042739;28;20036;-42
2023/04/26 00:35:18;;;;;;;4.28;1.35;;;;;;;;;;5041275;28;20029;-43
2023/04/26 00:37:43;;;;;;;1.75;1.38;;;;;;;;;;5040829;28;20115;-43
2023/04/26 00:40:09;;;;;;;4.00;1.33;;;;;;;;;;5041872;28;20230;-41
2023/04/26 00:42:34;;;;;;;2.92;1.50;;;;;;;;;;5041182;28;20075;-44
2023/04/26 00:45:00;;;;;;;1.67;1.40;;;;;;;;;;5045378;28;20021;-44
2023/04/26 00:47:28;;;;;;;4.10;1.90;;;;;;;;;;5039302;28;20037;-42
2023/04/26 00:49:53;;;;;;;2.50;1.77;;;;;;;;;;5041832;28;20385;-43
2023/04/26 00:52:19;;;;;;;3.92;1.70;;;;;;;;;;5042402;28;20044;-42
2023/04/26 00:54:44;;;;;;;1.73;1.50;;;;;;;;;;5038597;28;20087;-42
2023/04/26 00:57:11;;;;;;;2.53;1.38;;;;;;;;;;5034802;28;20111;-43
2023/04/26 00:59:36;;;;;;;2.35;1.60;;;;;;;;;;5041482;28;20065;-42
2023/04/26 01:02:02;;;;;;;4.43;1.50;;;;;;;;;;5042119;28;20060;-45
2023/04/26 01:04:29;;;;;;;3.80;1.38;;;;;;;;;;5041957;28;20033;-44
2023/04/26 01:06:55;;;;;;;2.35;1.38;;;;;;;;;;5038616;28;20052;-42
2023/04/26 01:09:20;;;;;;;3.17;1.83;;;;;;;;;;5040810;28;20025;-42
2023/04/26 01:11:47;;;;;;;2.05;1.40;;;;;;;;;;5043075;28;20037;-42
2023/04/26 01:14:14;;;;;;;2.67;1.60;;;;;;;;;;5039957;28;20041;-42
2023/04/26 01:16:39;;;;;;;5.30;1.98;;;;;;;;;;5040834;28;20117;-42
2023/04/26 01:19:09;;;;;;;3.72;1.40;;;;;;;;;;5046100;28;20100;-43
2023/04/26 01:21:35;;;;;;;1.73;1.52;;;;;;;;;;5045741;28;20043;-46
2023/04/26 01:24:00;;;;;;;6.50;1.42;;;;;;;;;;5047912;28;20024;-41
2023/04/26 01:26:26;;;;;;;3.20;1.50;;;;;;;;;;5041896;28;20052;-41
2023/04/26 01:28:51;;;;;;;1.20;1.15;;;;;;;;;;5045924;28;20627;-42
2023/04/26 01:31:16;;;;;;;2.33;1.60;;;;;;;;;;5044952;28;20498;-43
2023/04/26 01:33:42;;;;;;;8.13;1.60;;;;;;;;;;5045281;28;20078;-46
2023/04/26 01:36:09;;;;;;;3.53;1.35;;;;;;;;;;5046108;28;20045;-43
2023/04/26 01:38:34;;;;;;;2.10;1.35;;;;;;;;;;5046442;28;20111;-41
2023/04/26 01:41:00;;;;;;;1.75;1.33;;;;;;;;;;5045145;28;20049;-41
2023/04/26 01:43:26;;;;;;;3.17;1.45;;;;;;;;;;5046153;28;20029;-43
2023/04/26 01:45:52;;;;;;;3.00;1.40;;;;;;;;;;5042924;28;20041;-40
2023/04/26 01:48:17;;;;;;;3.45;1.55;;;;;;;;;;5043435;28;20021;-41
2023/04/26 01:50:42;;;;;;;2.40;1.38;;;;;;;;;;5045312;28;20041;-41
2023/04/26 01:53:08;;;;;;;2.85;1.40;;;;;;;;;;5045383;28;20429;-43
2023/04/26 01:55:33;;;;;;;5.82;1.55;;;;;;;;;;5045384;28;20052;-41
2023/04/26 01:57:58;;;;;;;1.67;1.33;;;;;;;;;;5043083;28;20029;-42
2023/04/26 02:00:25;;;;;;;1.23;1.10;;;;;;;;;;5044067;28;20040;-41
2023/04/26 02:02:54;;;;;;;1.55;1.45;;;;;;;;;;5047763;28;20037;-45
2023/04/26 02:05:20;;;;;;;2.50;1.58;;;;;;;;;;5044363;28;20394;-42
2023/04/26 02:07:45;;;;;;;6.03;1.38;;;;;;;;;;5042798;28;20021;-43
2023/04/26 02:10:10;;;;;;;2.15;1.50;;;;;;;;;;5045247;28;20433;-43
2023/04/26 02:12:36;;;;;;;1.40;1.30;;;;;;;;;;5044949;28;20021;-41
2023/04/26 02:15:01;;;;;;;3.95;1.58;;;;;;;;;;5044659;28;20045;-41
2023/04/26 02:17:28;;;;;;;2.47;1.40;;;;;;;;;;5040736;28;20456;-43
2023/04/26 02:19:53;;;;;;;3.80;1.38;;;;;;;;;;5042782;28;20025;-44
2023/04/26 02:22:20;;;;;;;3.55;1.30;;;;;;;;;;5044463;28;20033;-40
2023/04/26 02:24:46;;;;;;;4.65;1.42;;;;;;;;;;5043910;28;20029;-41
2023/04/26 02:27:11;;;;;;;3.38;1.48;;;;;;;;;;5033892;28;20049;-41
2023/04/26 02:29:37;;;;;;;2.88;1.25;;;;;;;;;;5032652;28;20076;-41
2023/04/26 02:32:03;;;;;;;2.05;1.40;;;;;;;;;;5029968;28;20041;-42
2023/04/26 02:34:28;;;;;;;1.63;1.30;;;;;;;;;;5034461;28;20057;-41
2023/04/26 02:36:54;;;;;;;3.38;1.42;;;;;;;;;;5038104;28;20033;-41
2023/04/26 02:39:19;;;;;;;3.40;1.70;;;;;;;;;;5044902;28;20025;-43
2023/04/26 02:41:45;;;;;;;1.73;1.60;;;;;;;;;;5042118;28;20048;-42
2023/04/26 02:44:11;;;;;;;6.38;1.50;;;;;;;;;;5042608;28;20456;-46
2023/04/26 02:46:36;;;;;;;4.43;1.40;;;;;;;;;;5044395;28;20095;-41
2023/04/26 02:49:02;;;;;;;4.35;1.55;;;;;;;;;;5042864;28;20033;-42
2023/04/26 02:51:27;;;;;;;3.17;2.00;;;;;;;;;;5034136;28;20406;-42
2023/04/26 02:53:52;;;;;;;1.30;1.20;;;;;;;;;;5021351;28;20091;-40
2023/04/26 02:56:18;;;;;;;2.08;1.55;;;;;;;;;;5033782;28;20040;-41
2023/04/26 02:58:44;;;;;;;2.35;1.58;;;;;;;;;;5040045;28;20100;-40
2023/04/26 03:01:09;;;;;;;3.33;1.40;;;;;;;;;;5042603;28;20443;-41
2023/04/26 03:03:35;;;;;;;2.25;1.55;;;;;;;;;;5043014;28;20483;-41
2023/04/26 03:06:01;;;;;;;3.00;1.50;;;;;;;;;;5040204;28;20040;-44
2023/04/26 03:08:26;;;;;;;2.03;1.63;;;;;;;;;;5042996;28;20082;-43
2023/04/26 03:10:52;;;;;;;2.03;1.73;;;;;;;;;;5042958;28;20057;-41
2023/04/26 03:13:17;;;;;;;3.58;1.50;;;;;;;;;;5042591;28;20172;-41
2023/04/26 03:15:45;;;;;;;2.83;1.40;;;;;;;;;;5039918;28;20033;-41
2023/04/26 03:18:10;;;;;;;2.22;1.77;;;;;;;;;;5041968;28;20083;-42
2023/04/26 03:20:35;;;;;;;4.60;1.67;;;;;;;;;;5046751;28;20040;-41
2023/04/26 03:23:01;;;;;;;1.38;1.27;;;;;;;;;;5042807;28;20817;-41
2023/04/26 03:25:26;;;;;;;2.42;1.33;;;;;;;;;;5043792;28;20193;-41
2023/04/26 03:27:51;;;;;;;2.47;1.75;;;;;;;;;;5044099;28;20037;-41
2023/04/26 03:30:17;;;;;;;2.75;1.50;;;;;;;;;;5041850;28;20470;-42
2023/04/26 03:32:42;;;;;;;2.85;1.42;;;;;;;;;;5044334;28;20036;-43
2023/04/26 03:35:09;;;;;;;3.38;1.75;;;;;;;;;;5044075;28;20028;-40
2023/04/26 03:37:34;;;;;;;1.50;1.10;;;;;;;;;;5025841;28;20061;-41
2023/04/26 03:40:00;;;;;;;2.80;1.20;;;;;;;;;;5023479;28;20040;-44
2023/04/26 03:42:25;;;;;;;1.73;1.23;;;;;;;;;;5042065;28;20069;-41
2023/04/26 03:44:51;;;;;;;2.42;1.42;;;;;;;;;;5039797;28;20037;-41
2023/04/26 03:47:16;;;;;;;7.95;1.55;;;;;;;;;;5039939;28;20085;-45
2023/04/26 03:49:41;;;;;;;5.47;1.85;;;;;;;;;;5043400;28;20036;-42
2023/04/26 03:52:07;;;;;;;2.25;1.27;;;;;;;;;;5041424;28;20048;-45
2023/04/26 03:54:33;;;;;;;4.68;1.70;;;;;;;;;;5042282;28;20033;-44
2023/04/26 03:56:59;;;;;;;4.32;1.42;;;;;;;;;;5042284;28;20043;-41
2023/04/26 03:59:24;;;;;;;1.52;1.40;;;;;;;;;;5040545;28;20029;-43
2023/04/26 04:01:49;;;;;;;2.45;1.38;;;;;;;;;;5040992;28;20029;-40
2023/04/26 04:04:15;;;;;;;1.88;1.40;;;;;;;;;;5041598;28;20140;-40
2023/04/26 04:06:41;;;;;;;1.65;1.38;;;;;;;;;;5044897;28;20567;-41
2023/04/26 04:09:06;;;;;;;3.85;1.45;;;;;;;;;;5039168;28;20040;-41
2023/04/26 04:11:32;;;;;;;8.15;1.70;;;;;;;;;;5041561;28;20041;-41
2023/04/26 04:13:57;;;;;;;1.52;1.30;;;;;;;;;;5045383;28;20086;-41
2023/04/26 04:16:22;;;;;;;1.92;1.35;;;;;;;;;;5040690;28;20037;-41
2023/04/26 04:18:48;;;;;;;3.33;1.83;;;;;;;;;;5041730;28;20033;-40
2023/04/26 04:21:13;;;;;;;6.45;1.55;;;;;;;;;;5040719;28;20486;-42
2023/04/26 04:23:38;;;;;;;5.80;1.90;;;;;;;;;;5040789;28;20029;-43
2023/04/26 04:26:04;;;;;;;3.80;1.52;;;;;;;;;;5042106;28;20043;-42
2023/04/26 04:28:31;;;;;;;4.28;1.45;;;;;;;;;;5042821;28;20486;-41
2023/04/26 04:30:57;;;;;;;1.80;1.25;;;;;;;;;;5040275;28;20391;-40
2023/04/26 04:33:24;;;;;;;2.35;1.13;;;;;;;;;;5042824;28;20024;-40
2023/04/26 04:35:51;;;;;;;3.33;1.75;;;;;;;;;;5042070;28;20045;-40
2023/04/26 04:38:17;;;;;;;2.15;1.60;;;;;;;;;;5038025;28;20061;-44
2023/04/26 04:40:42;;;;;;;4.03;1.45;;;;;;;;;;5039753;28;20084;-41
2023/04/26 04:43:08;;;;;;;5.50;1.50;;;;;;;;;;5041510;28;20079;-41
2023/04/26 04:45:34;;;;;;;5.22;1.90;;;;;;;;;;5045343;28;20037;-41
2023/04/26 04:47:59;;;;;;;1.67;1.42;;;;;;;;;;5041213;28;20466;-40
2023/04/26 04:50:25;;;;;;;2.72;1.67;;;;;;;;;;5040638;28;20033;-41
2023/04/26 04:52:50;;;;;;;3.97;2.33;;;;;;;;;;5044571;28;20108;-40
2023/04/26 04:55:16;;;;;;;4.43;1.60;;;;;;;;;;5044668;28;20029;-41
2023/04/26 04:57:41;;;;;;;2.95;1.67;;;;;;;;;;5043897;28;20045;-42
2023/04/26 05:00:14;;;;;;;2.88;1.58;;;;;;;;;;5041224;28;20037;-43
2023/04/26 05:02:40;;;;;;;1.73;1.52;;;;;;;;;;5022662;28;20703;-43
2023/04/26 05:05:06;;;;;;;1.60;1.35;;;;;;;;;;5027936;28;20047;-42
2023/04/26 05:07:32;;;;;;;4.18;1.70;;;;;;;;;;5020220;28;20038;-40
2023/04/26 05:09:57;;;;;;;2.85;1.70;;;;;;;;;;5026489;28;20036;-41
2023/04/26 05:12:23;;;;;;;8.90;2.60;;;;;;;;;;5023422;28;20044;-40
2023/04/26 05:14:48;;;;;;;5.03;1.63;;;;;;;;;;5024982;28;20091;-40
2023/04/26 05:17:13;;;;;;;3.90;1.85;;;;;;;;;;5026332;28;20061;-40
2023/04/26 05:19:39;;;;;;;4.50;1.98;;;;;;;;;;5025077;28;20033;-41
2023/04/26 05:22:04;;;;;;;1.73;1.50;;;;;;;;;;5026828;28;20585;-41
2023/04/26 05:24:33;;;;;;;2.45;1.60;;;;;;;;;;5021241;28;20021;-41
2023/04/26 05:26:58;;;;;;;6.70;1.77;;;;;;;;;;5041018;28;20044;-42
2023/04/26 05:29:28;;;;;;;3.22;1.90;;;;;;;;;;5044272;28;20037;-41
2023/04/26 05:31:54;;;;;;;2.65;2.22;;;;;;;;;;5043821;28;20087;-41
2023/04/26 05:34:19;;;;;;;7.07;1.88;;;;;;;;;;5046753;28;20428;-42
2023/04/26 05:36:45;;;;;;;3.53;1.92;;;;;;;;;;5038252;28;20045;-41
2023/04/26 05:39:11;;;;;;;2.47;1.67;;;;;;;;;;5044426;28;20028;-42
2023/04/26 05:41:36;;;;;;;7.03;2.85;;;;;;;;;;5042607;28;20053;-43
2023/04/26 05:44:02;;;;;;;4.22;2.20;;;;;;;;;;5038397;28;20043;-42
2023/04/26 05:46:27;;;;;;;5.47;1.92;;;;;;;;;;5044064;28;20045;-42
2023/04/26 05:48:53;;;;;;;5.00;1.80;;;;;;;;;;5043089;28;20032;-43
2023/04/26 05:51:20;;;;;;;3.85;1.70;;;;;;;;;;5044515;28;20037;-46
2023/04/26 05:53:45;;;;;;;4.45;1.70;;;;;;;;;;5039088;28;20064;-40
2023/04/26 05:56:10;;;;;;;3.45;1.85;;;;;;;;;;5041466;28;20052;-41
2023/04/26 05:58:36;;;;;;;2.63;1.88;;;;;;;;;;5044782;28;20370;-41
2023/04/26 06:01:01;;;;;;;5.30;1.67;;;;;;;;;;5045282;28;20094;-44
2023/04/26 06:03:26;;;;;;;6.32;1.92;;;;;;;;;;5043302;28;20116;-41
2023/04/26 06:05:52;;;;;;;2.42;1.50;;;;;;;;;;5043612;28;20115;-43
2023/04/26 06:08:17;;;;;;;2.92;1.80;;;;;;;;;;5045103;28;22135;-41
2023/04/26 06:10:43;;;;;;;7.97;2.00;;;;;;;;;;5044258;28;20041;-41
2023/04/26 06:13:08;;;;;;;3.15;1.60;;;;;;;;;;5044038;28;20021;-42
2023/04/26 06:15:33;;;;;;;5.00;1.65;;;;;;;;;;5043577;28;20575;-41
2023/04/26 06:17:59;;;;;;;4.03;2.15;;;;;;;;;;5045694;28;20048;-41
2023/04/26 06:20:24;;;;;;;4.57;1.95;;;;;;;;;;5044147;28;20029;-41
2023/04/26 06:22:50;;;;;;;2.00;1.60;;;;;;;;;;5041287;28;20553;-42
2023/04/26 06:25:15;;;;;;;2.60;1.83;;;;;;;;;;5045213;28;20025;-41
2023/04/26 06:27:41;;;;;;;1.70;1.33;;;;;;;;;;5045114;28;20753;-45
2023/04/26 06:30:07;;;;;;;2.88;1.80;;;;;;;;;;5044944;28;20032;-44
2023/04/26 06:32:32;;;;;;;2.15;1.77;;;;;;;;;;5046135;28;20033;-41
2023/04/26 06:34:58;;;;;;;3.15;1.50;;;;;;;;;;5043035;28;20025;-41
2023/04/26 06:37:23;;;;;;;2.38;1.73;;;;;;;;;;5040870;28;20573;-44
2023/04/26 06:39:49;;;;;;;6.57;1.83;;;;;;;;;;5043869;28;20034;-41
2023/04/26 06:42:14;;;;;;;6.28;2.15;;;;;;;;;;5044669;28;20378;-45
2023/04/26 06:44:40;;;;;;;4.25;1.80;;;;;;;;;;5045165;28;20389;-42
2023/04/26 06:47:08;;;;;;;6.43;1.90;;;;;;;;;;5045239;28;20045;-41
2023/04/26 06:49:34;;;;;;;2.10;1.52;;;;;;;;;;5042619;28;20480;-47
2023/04/26 06:51:59;;;;;;;4.68;2.03;;;;;;;;;;5044136;28;20069;-42
2023/04/26 06:54:29;;;;;;;4.05;1.85;;;;;;;;;;5041796;28;20033;-45
2023/04/26 06:57:19;;;;;;;1.80;1.45;;;;;;;;;;5043225;28;20103;-41
2023/04/26 06:59:45;;;;;;;7.00;2.50;;;;;;;;;;5040659;28;20108;-42
2023/04/26 07:02:10;;;;;;;2.55;1.67;;;;;;;;;;5042600;28;20055;-44
2023/04/26 07:04:36;;;;;;;4.72;1.83;;;;;;;;;;5044685;28;20104;-46
2023/04/26 07:07:02;;;;;;;4.28;1.67;;;;;;;;;;5044679;28;20141;-42
2023/04/26 07:09:27;;;;;;;4.00;1.85;;;;;;;;;;5040138;28;20600;-45
2023/04/26 07:11:52;;;;;;;3.60;2.17;;;;;;;;;;5044540;28;20037;-47
2023/04/26 07:14:18;;;;;;;3.33;2.40;;;;;;;;;;5046055;28;20021;-43
2023/04/26 07:16:43;;;;;;;2.50;1.92;;;;;;;;;;5041882;28;20056;-42
2023/04/26 07:19:09;;;;;;;3.35;1.45;;;;;;;;;;5041636;28;20029;-47
2023/04/26 07:21:35;;;;;;;4.85;1.70;;;;;;;;;;5042152;28;20124;-45
2023/04/26 07:24:01;;;;;;;13.60;1.85;;;;;;;;;;5045387;28;20129;-43
2023/04/26 07:26:26;;;;;;;4.18;2.10;;;;;;;;;;5042291;28;20120;-40
2023/04/26 07:28:52;;;;;;;2.03;1.88;;;;;;;;;;5042920;28;20024;-44
2023/04/26 07:31:19;;;;;;;3.40;1.58;;;;;;;;;;5041364;28;20049;-42
2023/04/26 07:33:44;;;;;;;5.00;2.40;;;;;;;;;;5044256;28;20477;-44
2023/04/26 07:36:10;;;;;;;4.20;2.20;;;;;;;;;;5041131;28;20045;-48
2023/04/26 07:38:35;;;;;;;5.05;2.30;;;;;;;;;;5043098;28;20027;-41
2023/04/26 07:41:00;;;;;;;6.00;2.10;;;;;;;;;;5042211;28;20079;-45
2023/04/26 07:43:26;;;;;;;5.65;2.45;;;;;;;;;;5044051;28;20028;-42
2023/04/26 07:45:52;;;;;;;3.15;2.50;;;;;;;;;;5044113;28;20047;-45
2023/04/26 07:48:17;;;;;;;6.15;2.40;;;;;;;;;;5040808;28;20508;-41
2023/04/26 07:50:43;;;;;;;8.23;3.00;;;;;;;;;;5041052;28;20431;-42
2023/04/26 07:53:08;;;;;;;8.52;2.65;;;;;;;;;;5042896;28;20104;-44
2023/04/26 07:55:33;;;;;;;4.63;2.45;;;;;;;;;;5041980;28;20049;-41
2023/04/26 07:57:59;;;;;;;8.05;2.65;;;;;;;;;;5041465;28;20013;-42
2023/04/26 08:00:25;;;;;;;3.30;2.30;;;;;;;;;;5040595;28;20535;-41
2023/04/26 08:02:50;;;;;;;4.93;2.65;;;;;;;;;;5044360;28;20078;-48
2023/04/26 08:05:15;;;;;;;5.07;2.65;;;;;;;;;;5044277;28;20029;-48
2023/04/26 08:07:42;;;;;;;8.70;3.22;;;;;;;;;;5041698;28;20446;-46
2023/04/26 08:10:08;;;;;;;10.85;2.40;;;;;;;;;;5041825;28;20043;-45
2023/04/26 08:12:34;;;;;;;10.48;3.08;;;;;;;;;;5045720;28;20611;-44
2023/04/26 08:15:00;;;;;;;4.50;2.60;;;;;;;;;;5036147;28;20392;-40
2023/04/26 08:17:26;;;;;;;5.15;2.20;;;;;;;;;;5042779;28;20394;-50
2023/04/26 08:19:52;;;;;;;7.25;2.22;;;;;;;;;;5043317;28;20039;-43
2023/04/26 08:22:17;;;;;;;7.90;2.22;;;;;;;;;;5040088;28;20078;-41
2023/04/26 08:24:53;;;;;;;4.95;1.70;;;;;;;;;;5040994;28;20112;-42
2023/04/26 08:27:19;;;;;;;2.25;1.80;;;;;;;;;;5044985;28;20045;-45
2023/04/26 08:29:45;;;;;;;4.78;2.10;;;;;;;;;;5046959;28;20039;-43
2023/04/26 08:32:10;;;;;;;4.85;2.25;;;;;;;;;;5045097;28;20033;-44
2023/04/26 08:34:36;;;;;;;10.38;2.22;;;;;;;;;;5045165;28;20056;-47
2023/04/26 08:37:01;;;;;;;2.90;1.88;;;;;;;;;;5044952;28;20046;-46
2023/04/26 08:39:27;;;;;;;8.60;2.30;;;;;;;;;;5045478;28;20037;-48
2023/04/26 08:41:54;;;;;;;5.97;1.85;;;;;;;;;;5046579;28;20115;-42
2023/04/26 08:44:25;;;;;;;4.70;2.05;;;;;;;;;;5048045;28;20029;-46
2023/04/26 08:46:59;;;;;;;14.82;2.42;;;;;;;;;;5048450;28;20420;-44
2023/04/26 08:49:36;;;;;;;4.00;2.22;;;;;;;;;;5049760;28;20025;-42
2023/04/26 08:52:03;;;;;;;6.22;2.10;;;;;;;;;;5046643;28;20052;-42
2023/04/26 08:54:30;;;;;;;4.90;2.40;;;;;;;;;;5044139;28;20093;-43
2023/04/26 08:56:57;;;;;;;6.95;2.35;;;;;;;;;;5043945;28;20036;-42
2023/04/26 08:59:23;;;;;;;6.13;2.38;;;;;;;;;;5046452;28;20022;-41
2023/04/26 09:01:49;;;;;;;3.20;2.53;;;;;;;;;;5044867;28;20040;-44
2023/04/26 09:04:15;;;;;;;4.25;2.10;;;;;;;;;;5045806;28;20040;-44
2023/04/26 09:06:42;;;;;;;9.55;2.40;;;;;;;;;;5045008;28;20037;-43
2023/04/26 09:09:10;;;;;;;5.75;2.17;;;;;;;;;;5044835;28;20030;-42
2023/04/26 09:11:55;;;;;;;8.35;2.15;;;;;;;;;;5046068;28;20044;-42
2023/04/26 09:14:21;;;;;;;7.50;2.28;;;;;;;;;;5042210;28;20489;-44
2023/04/26 09:16:46;;;;;;;3.00;2.13;;;;;;;;;;5043611;28;20037;-41
2023/04/26 09:19:12;;;;;;;11.88;2.10;;;;;;;;;;5046190;28;20138;-41
2023/04/26 09:21:45;;;;;;;5.72;2.10;;;;;;;;;;5042692;28;20048;-41
2023/04/26 09:24:11;;;;;;;8.45;2.50;;;;;;;;;;5045095;28;20029;-42
2023/04/26 09:26:36;;;;;;;4.18;2.20;;;;;;;;;;5042641;28;20088;-41
2023/04/26 09:29:15;;;;;;;4.57;2.33;;;;;;;;;;5045387;28;20037;-41
2023/04/26 09:31:45;;;;;;;5.22;2.35;;;;;;;;;;5044827;28;20559;-42
2023/04/26 09:34:12;;;;;;;5.82;2.50;;;;;;;;;;5046797;28;20488;-41
2023/04/26 09:36:55;;;;;;;7.32;2.28;;;;;;;;;;5044311;28;20628;-42
2023/04/26 09:39:39;;;;;;;4.45;2.45;;;;;;;;;;5045268;28;20037;-42
2023/04/26 09:42:05;;;;;;;6.35;2.40;;;;;;;;;;5043089;28;20079;-42
2023/04/26 09:44:31;;;;;;;3.65;2.35;;;;;;;;;;5043313;28;20029;-42
2023/04/26 09:47:11;;;;;;;2.67;2.30;;;;;;;;;;5044294;28;20037;-42
2023/04/26 09:49:50;;;;;;;4.78;2.08;;;;;;;;;;5043443;28;20087;-41
2023/04/26 09:52:17;;;;;;;7.88;2.65;;;;;;;;;;5043691;28;20049;-41
2023/04/26 09:54:51;;;;;;;4.50;2.00;;;;;;;;;;5043583;28;20029;-44
2023/04/26 09:57:18;;;;;;;7.65;1.90;;;;;;;;;;5042930;28;20038;-41
2023/04/26 09:59:46;;;;;;;4.00;1.70;;;;;;;;;;5044836;28;20080;-44
2023/04/26 10:02:23;;;;;;;5.30;2.22;;;;;;;;;;5042835;28;20041;-42
2023/04/26 10:04:50;;;;;;;5.88;1.92;;;;;;;;;;5045340;28;20547;-42
2023/04/26 10:07:18;;;;;;;3.97;2.10;;;;;;;;;;5044540;28;20080;-42
2023/04/26 10:09:43;;;;;;;4.88;1.70;;;;;;;;;;5045128;28;20048;-41
2023/04/26 10:12:13;;;;;;;5.28;2.03;;;;;;;;;;5045741;28;20041;-41
2023/04/26 10:14:40;;;;;;;8.30;1.60;;;;;;;;;;5045200;28;20108;-41
2023/04/26 10:17:06;;;;;;;2.50;1.40;;;;;;;;;;5044099;28;20045;-42
2023/04/26 10:19:33;;;;;;;3.08;1.52;;;;;;;;;;5042624;28;20389;-45
2023/04/26 10:22:03;;;;;;;3.90;1.70;;;;;;;;;;5043516;28;20048;-42
2023/04/26 10:24:29;;;;;;;6.07;1.85;;;;;;;;;;5046123;28;20029;-42
2023/04/26 10:26:56;;;;;;;1.90;1.45;;;;;;;;;;5045476;28;20052;-42
2023/04/26 10:29:24;;;;;;;2.20;1.35;;;;;;;;;;5040454;28;20112;-41
2023/04/26 10:32:05;;;;;;;2.30;1.35;;;;;;;;;;5044145;28;20037;-42
2023/04/26 10:34:32;;;;;;;2.30;1.30;;;;;;;;;;5044661;28;20024;-45
2023/04/26 10:37:17;;;;;;;6.85;1.10;;;;;;;;;;5044256;28;20036;-42
2023/04/26 10:39:44;;;;;;;1.27;1.17;;;;;;;;;;5043277;28;20029;-45
2023/04/26 10:42:26;;;;;;;2.92;1.90;;;;;;;;;;5045035;28;20090;-42
2023/04/26 10:45:11;;;;;;;5.32;1.20;;;;;;;;;;5044442;28;20202;-42
2023/04/26 10:47:37;;;;;;;6.30;1.17;;;;;;;;;;5044020;28;20062;-42
2023/04/26 10:50:08;;;;;;;3.50;1.20;;;;;;;;;;5045235;28;20385;-42
2023/04/26 10:52:35;;;;;;;1.77;0.98;;;;;;;;;;5041175;28;20136;-42
2023/04/26 10:55:01;;;;;;;2.00;1.58;;;;;;;;;;5044028;28;20033;-43
2023/04/26 10:57:45;;;;;;;5.47;1.38;;;;;;;;;;5042477;28;20161;-41
2023/04/26 11:00:19;;;;;;;2.15;1.33;;;;;;;;;;5039254;28;20040;-42
2023/04/26 11:02:50;;;;;;;3.35;1.00;;;;;;;;;;5044381;28;20028;-41
2023/04/26 11:05:49;;;;;;;2.05;1.13;;;;;;;;;;5043119;28;20035;-42
2023/04/26 11:08:27;;;;;;;0.98;0.88;;;;;;;;;;5043658;28;20059;-43
2023/04/26 11:11:10;;;;;;;2.47;0.93;;;;;;;;;;5041761;28;20048;-42
2023/04/26 11:13:37;;;;;;;1.17;1.00;;;;;;;;;;5044760;28;20028;-41
2023/04/26 11:16:10;;;;;;;3.03;0.85;;;;;;;;;;5041647;28;20049;-46
2023/04/26 11:18:37;;;;;;;4.13;1.25;;;;;;;;;;5044563;28;20529;-46
2023/04/26 11:21:04;;;;;;;2.50;0.80;;;;;;;;;;5044712;28;20140;-42
2023/04/26 11:23:30;;;;;;;2.75;0.82;;;;;;;;;;5042619;28;20165;-42
2023/04/26 11:26:03;;;;;;;2.83;1.05;;;;;;;;;;5043415;28;20041;-45
2023/04/26 11:28:32;;;;;;;1.73;1.10;;;;;;;;;;5042658;28;20032;-47
2023/04/26 11:30:57;;;;;;;0.95;0.60;;;;;;;;;;5044042;28;20055;-41
2023/04/26 11:33:23;;;;;;;1.17;0.75;;;;;;;;;;5043940;28;20025;-42
2023/04/26 11:35:53;;;;;;;2.20;1.20;;;;;;;;;;5042328;28;20043;-43
2023/04/26 11:38:23;;;;;;;1.15;0.93;;;;;;;;;;5042000;28;20044;-42
2023/04/26 11:40:58;;;;;;;2.63;0.82;;;;;;;;;;5042112;28;20049;-43
2023/04/26 11:43:37;;;;;;;1.95;0.90;;;;;;;;;;5042444;28;20494;-42
2023/04/26 11:46:04;;;;;;;4.70;0.85;;;;;;;;;;5044132;28;20049;-44
2023/04/26 11:48:29;;;;;;;8.82;1.20;;;;;;;;;;5042875;28;20060;-42
2023/04/26 11:51:01;;;;;;;9.73;1.13;;;;;;;;;;5042142;28;20402;-43
2023/04/26 11:53:41;;;;;;;0.80;0.80;;;;;;;;;;5042244;28;20029;-43
2023/04/26 11:56:16;;;;;;;3.17;0.88;;;;;;;;;;5043489;28;20037;-42
2023/04/26 11:58:49;;;;;;;2.80;0.73;;;;;;;;;;5043025;28;20017;-46
2023/04/26 12:01:22;;;;;;;2.35;0.70;;;;;;;;;;5040816;28;20480;-43
2023/04/26 12:03:52;;;;;;;2.95;0.70;;;;;;;;;;5042450;28;20492;-40
2023/04/26 12:06:19;;;;;;;5.88;0.57;;;;;;;;;;5039809;28;20045;-46
2023/04/26 12:08:50;;;;;;;0.73;0.50;;;;;;;;;;5044062;28;20024;-42
2023/04/26 12:11:16;;;;;;;0.45;0.35;;;;;;;;;;5042307;28;20063;-45
2023/04/26 12:13:42;;;;;;;1.10;0.50;;;;;;;;;;5042266;28;20018;-42
2023/04/26 12:16:08;;;;;;;4.03;0.60;;;;;;;;;;5041583;28;20048;-42
2023/04/26 12:18:33;;;;;;;4.82;0.73;;;;;;;;;;5040437;28;20021;-42
2023/04/26 12:21:00;;;;;;;0.73;0.70;;;;;;;;;;5042349;28;20041;-42
2023/04/26 12:23:26;;;;;;;3.50;1.13;;;;;;;;;;5043919;28;20029;-41
2023/04/26 12:25:56;;;;;;;2.67;0.77;;;;;;;;;;5043596;28;20033;-42
2023/04/26 12:28:22;;;;;;;0.90;0.77;;;;;;;;;;5042148;28;20129;-44
2023/04/26 12:30:49;;;;;;;0.52;0.52;;;;;;;;;;5043142;28;20068;-43
2023/04/26 12:33:15;;;;;;;0.60;0.60;;;;;;;;;;5044747;28;20028;-45
2023/04/26 12:35:40;;;;;;;3.25;0.82;;;;;;;;;;5040054;28;20387;-42
2023/04/26 12:38:06;;;;;;;0.68;0.60;;;;;;;;;;5040630;28;20014;-47
2023/04/26 12:40:31;;;;;;;3.95;0.77;;;;;;;;;;5040927;28;20044;-42
2023/04/26 12:42:57;;;;;;;3.03;0.70;;;;;;;;;;5043888;28;20036;-47
2023/04/26 12:45:24;;;;;;;0.60;0.57;;;;;;;;;;5043026;28;20040;-44
2023/04/26 12:47:50;;;;;;;1.15;0.68;;;;;;;;;;5040747;28;20524;-42
2023/04/26 12:50:16;;;;;;;6.68;0.80;;;;;;;;;;5040410;28;20037;-44
2023/04/26 12:52:43;;;;;;;1.75;0.63;;;;;;;;;;5041916;28;20109;-42
2023/04/26 12:55:11;;;;;;;1.23;0.50;;;;;;;;;;5041073;28;20025;-43
2023/04/26 12:57:37;;;;;;;0.50;0.35;;;;;;;;;;5041479;28;20028;-43
2023/04/26 13:00:04;;;;;;;3.63;0.60;;;;;;;;;;5042817;28;20032;-42
2023/04/26 13:02:29;;;;;;;1.35;0.60;;;;;;;;;;5042566;28;20054;-42
2023/04/26 13:04:55;;;;;;;0.77;0.63;;;;;;;;;;5041576;28;20033;-42
2023/04/26 13:07:21;;;;;;;0.40;0.40;;;;;;;;;;5041103;28;20038;-42
2023/04/26 13:09:46;;;;;;;2.13;0.50;;;;;;;;;;5043219;28;20044;-45
2023/04/26 13:12:13;;;;;;;4.85;0.82;;;;;;;;;;5041915;28;20049;-46
2023/04/26 13:14:38;;;;;;;1.83;0.80;;;;;;;;;;5044981;28;20040;-41
2023/04/26 13:17:04;;;;;;;3.75;0.50;;;;;;;;;;5044667;28;20067;-41
2023/04/26 13:19:30;;;;;;;1.58;0.68;;;;;;;;;;5047223;28;20025;-43
2023/04/26 13:21:55;;;;;;;0.70;0.40;;;;;;;;;;5045720;28;20044;-46
2023/04/26 13:24:21;;;;;;;2.65;0.80;;;;;;;;;;5046091;28;20479;-45
2023/04/26 13:26:46;;;;;;;1.38;0.70;;;;;;;;;;5045983;28;20135;-42
2023/04/26 13:29:12;;;;;;;0.60;0.60;;;;;;;;;;5045655;28;20033;-43
2023/04/26 13:31:38;;;;;;;0.85;0.60;;;;;;;;;;5045567;28;20091;-43
2023/04/26 13:34:04;;;;;;;6.43;0.75;;;;;;;;;;5047636;28;20028;-42
2023/04/26 13:36:31;;;;;;;2.72;0.60;;;;;;;;;;5044361;28;20037;-44
2023/04/26 13:38:56;;;;;;;0.95;0.80;;;;;;;;;;5045795;28;20026;-43
2023/04/26 13:41:22;;;;;;;1.20;0.77;;;;;;;;;;5043854;28;20064;-43
2023/04/26 13:43:48;;;;;;;0.50;0.50;;;;;;;;;;5045390;28;20086;-41
2023/04/26 13:46:13;;;;;;;5.22;0.90;;;;;;;;;;5046492;28;20485;-47
2023/04/26 13:48:38;;;;;;;3.58;0.70;;;;;;;;;;5045688;28;20055;-43
2023/04/26 13:51:05;;;;;;;5.07;0.98;;;;;;;;;;5043874;28;20041;-42
2023/04/26 13:53:30;;;;;;;1.67;0.90;;;;;;;;;;5044697;28;20068;-42
2023/04/26 13:55:55;;;;;;;2.03;1.10;;;;;;;;;;5045856;28;20505;-42
2023/04/26 13:58:21;;;;;;;0.82;0.82;;;;;;;;;;5042816;28;20036;-46
2023/04/26 14:00:46;;;;;;;3.78;0.90;;;;;;;;;;5045655;28;20049;-42
2023/04/26 14:03:12;;;;;;;2.45;1.00;;;;;;;;;;5044563;28;20063;-44
2023/04/26 14:05:37;;;;;;;1.80;1.00;;;;;;;;;;5044861;28;20052;-42
2023/04/26 14:08:02;;;;;;;1.13;0.52;;;;;;;;;;5044715;28;20033;-45
2023/04/26 14:10:28;;;;;;;1.02;0.80;;;;;;;;;;5046546;28;20057;-43
2023/04/26 14:12:55;;;;;;;2.55;0.70;;;;;;;;;;5044287;28;20025;-43
2023/04/26 14:15:21;;;;;;;1.33;0.73;;;;;;;;;;5046965;28;20060;-43
2023/04/26 14:17:46;;;;;;;2.03;1.00;;;;;;;;;;5045650;28;20104;-42
2023/04/26 14:20:12;;;;;;;1.92;0.90;;;;;;;;;;5043046;28;20041;-49
2023/04/26 14:22:37;;;;;;;2.00;1.00;;;;;;;;;;5046080;28;20055;-44
2023/04/26 14:25:03;;;;;;;2.75;1.02;;;;;;;;;;5044157;28;20363;-42
2023/04/26 14:27:28;;;;;;;4.53;0.73;;;;;;;;;;5045912;28;20045;-44
2023/04/26 14:29:54;;;;;;;4.38;0.95;;;;;;;;;;5044998;28;20041;-48
2023/04/26 14:32:20;;;;;;;4.78;0.80;;;;;;;;;;5042727;28;20057;-46
2023/04/26 14:34:45;;;;;;;2.10;0.93;;;;;;;;;;5045124;28;20037;-42
2023/04/26 14:37:10;;;;;;;3.25;0.80;;;;;;;;;;5040615;28;20091;-44
2023/04/26 14:39:36;;;;;;;3.42;0.90;;;;;;;;;;5044617;28;20025;-43
2023/04/26 14:42:02;;;;;;;2.50;0.90;;;;;;;;;;5040872;28;20049;-43